Time;durP1;ratioP1;P1;durP2;ratioP2;P2;SDS_P1;SDS_P2;PMS_P1;PMS_P2;Temp;Humidity;BMP_temperature;BMP_pressure;BME280_temperature;BME280_humidity;BME280_pressure;Samples;Min_cycle;Max_cycle;Signal;HPM_P1;HPM_P2
2022/08/01 15:31:21;;;;;;;11.28;8.75;;;;;;;19.38;100.00;99557.39;1764954;79;28348;-76
2022/08/01 15:34:26;;;;;;;11.00;7.97;;;;;;;19.49;100.00;99562.58;1731849;81;21222;-78
2022/08/01 15:37:32;;;;;;;9.60;6.83;;;;;;;19.50;100.00;99545.67;1732269;83;21218;-79
2022/08/01 15:40:39;;;;;;;12.07;8.93;;;;;;;19.51;100.00;99492.42;1730647;81;21682;-78
2022/08/01 15:43:45;;;;;;;11.00;8.50;;;;;;;19.50;100.00;99484.66;1731817;82;21145;-78
2022/08/01 15:46:53;;;;;;;11.70;7.80;;;;;;;19.52;100.00;99493.55;1731603;83;21161;-78
2022/08/01 15:50:01;;;;;;;11.68;8.00;;;;;;;19.56;100.00;99501.66;1731084;81;21221;-79
2022/08/01 15:53:09;;;;;;;8.95;6.67;;;;;;;19.57;100.00;99510.30;1731897;83;21204;-79
2022/08/01 15:56:15;;;;;;;11.43;8.08;;;;;;;19.61;100.00;99529.50;1730780;81;21239;-80
2022/08/01 15:59:22;;;;;;;9.20;6.55;;;;;;;19.49;100.00;99530.13;1731572;81;21247;-80
2022/08/01 16:02:27;;;;;;;9.50;6.42;;;;;;;19.39;100.00;99521.66;1731564;83;21172;-80
2022/08/01 16:05:35;;;;;;;10.70;7.22;;;;;;;19.31;100.00;99516.53;1730996;81;21200;-79
2022/08/01 16:08:42;;;;;;;11.80;5.80;;;;;;;19.25;100.00;99513.39;1731755;83;21204;-79
2022/08/01 16:11:48;;;;;;;8.98;7.22;;;;;;;19.20;100.00;99513.31;1731770;83;21192;-79
2022/08/01 16:14:53;;;;;;;9.40;7.37;;;;;;;19.11;100.00;99517.88;1731827;81;21748;-79
2022/08/01 16:17:59;;;;;;;8.55;7.25;;;;;;;19.07;100.00;99510.31;1731722;83;21156;-79
2022/08/01 16:21:06;;;;;;;11.05;7.20;;;;;;;19.07;100.00;99486.20;1730791;81;21180;-80
2022/08/01 16:24:12;;;;;;;12.28;6.25;;;;;;;18.94;100.00;99465.75;1731961;81;21216;-80
2022/08/01 16:27:18;;;;;;;11.25;6.75;;;;;;;18.92;100.00;99444.39;1731750;83;21153;-80
2022/08/01 16:30:25;;;;;;;9.13;7.20;;;;;;;18.88;100.00;99427.98;1731695;81;21789;-80
2022/08/01 16:33:33;;;;;;;13.58;6.75;;;;;;;18.80;100.00;99423.69;1737329;82;21221;-80
2022/08/01 16:36:39;;;;;;;12.70;6.60;;;;;;;18.80;100.00;99424.23;1736889;82;21753;-80
2022/08/01 16:39:46;;;;;;;13.60;6.22;;;;;;;18.75;100.00;99407.53;1737447;81;21753;-79
2022/08/01 16:42:53;;;;;;;9.93;5.65;;;;;;;18.76;100.00;99407.81;1737533;82;21221;-79
2022/08/01 16:46:00;;;;;;;7.25;5.10;;;;;;;18.74;100.00;99399.77;1737104;81;21220;-77
2022/08/01 16:49:05;;;;;;;7.08;4.92;;;;;;;18.71;100.00;99393.33;1737322;82;21162;-79
2022/08/01 16:52:11;;;;;;;9.40;5.05;;;;;;;18.71;100.00;99400.81;1737460;82;21177;-78
2022/08/01 16:55:17;;;;;;;6.28;4.78;;;;;;;18.71;100.00;99407.73;1737215;81;21236;-77
2022/08/01 16:58:23;;;;;;;5.53;3.98;;;;;;;18.72;100.00;99402.48;1737731;82;21197;-77
2022/08/01 17:01:28;;;;;;;6.42;4.90;;;;;;;18.72;100.00;99406.09;1736769;81;21240;-77
2022/08/01 17:04:34;;;;;;;6.85;4.85;;;;;;;18.75;100.00;99396.45;1736783;81;21769;-77
2022/08/01 17:07:40;;;;;;;5.67;4.40;;;;;;;18.74;100.00;99388.69;1747768;82;21157;-78
2022/08/01 17:10:39;;;;;;;7.53;4.83;;;;;;;18.73;100.00;99385.63;1747621;81;21232;-79
2022/08/01 17:13:33;;;;;;;7.12;5.70;;;;;;;18.75;100.00;99408.36;1747565;82;21749;-79
2022/08/01 17:16:19;;;;;;;12.45;6.47;;;;;;;18.80;100.00;99395.14;1746865;81;21160;-79
2022/08/01 17:19:25;;;;;;;10.60;6.40;;;;;;;18.79;100.00;99398.46;1747489;81;21740;-81
2022/08/01 17:22:31;;;;;;;10.65;5.37;;;;;;;18.78;100.00;99405.10;1747506;82;21236;-80
2022/08/01 17:25:36;;;;;;;9.53;5.20;;;;;;;18.77;100.00;99408.10;1746794;81;21204;-78
2022/08/01 17:28:42;;;;;;;7.90;5.20;;;;;;;18.82;100.00;99410.44;1746132;82;21181;-78
2022/08/01 17:31:49;;;;;;;5.35;4.37;;;;;;;18.91;100.00;99396.97;1743146;81;21200;-78
2022/08/01 17:34:55;;;;;;;6.80;4.78;;;;;;;18.91;100.00;99372.03;1735978;81;21760;-78
2022/08/01 17:38:01;;;;;;;5.17;4.47;;;;;;;18.89;100.00;99385.32;1733313;83;21180;-80
2022/08/01 17:41:06;;;;;;;7.35;4.58;;;;;;;18.85;100.00;99389.68;1732331;81;21245;-80
2022/08/01 17:44:11;;;;;;;6.83;4.10;;;;;;;18.88;100.00;99396.11;1733393;81;21164;-78
2022/08/01 17:47:17;;;;;;;11.60;4.72;;;;;;;18.88;100.00;99408.58;1732496;82;21244;-79
2022/08/01 17:50:24;;;;;;;5.22;3.92;;;;;;;18.92;100.00;99400.06;1732146;81;21227;-79
2022/08/01 17:53:29;;;;;;;8.43;4.87;;;;;;;18.89;100.00;99374.23;1731927;83;21208;-80
2022/08/01 17:56:37;;;;;;;8.33;5.15;;;;;;;18.87;100.00;99369.51;1732903;83;21219;-79
2022/08/01 17:59:44;;;;;;;8.50;5.33;;;;;;;18.82;100.00;99372.17;1733211;81;21200;-78
2022/08/01 18:02:50;;;;;;;7.87;5.95;;;;;;;18.76;100.00;99367.65;1732098;83;21196;-79
2022/08/01 18:05:55;;;;;;;9.45;6.03;;;;;;;18.71;100.00;99371.17;1732497;81;21199;-80
2022/08/01 18:09:01;;;;;;;12.88;6.10;;;;;;;18.71;100.00;99380.87;1733560;83;21167;-80
2022/08/01 18:12:08;;;;;;;7.17;5.80;;;;;;;18.78;100.00;99384.88;1733446;83;21149;-78
2022/08/01 18:15:16;;;;;;;9.53;5.62;;;;;;;18.75;100.00;99386.75;1732942;81;21180;-80
2022/08/01 18:18:24;;;;;;;8.58;5.95;;;;;;;18.75;100.00;99381.21;1733529;81;21714;-80
2022/08/01 18:21:34;;;;;;;6.03;5.42;;;;;;;18.77;100.00;99381.27;1731884;81;21752;-80
2022/08/01 18:24:41;;;;;;;10.23;6.42;;;;;;;18.79;100.00;99394.30;1733197;81;21207;-80
2022/08/01 18:27:47;;;;;;;8.43;6.30;;;;;;;18.80;100.00;99402.07;1731961;83;21732;-79
2022/08/01 18:30:54;;;;;;;7.87;6.28;;;;;;;18.82;100.00;99404.03;1732051;81;21205;-79
2022/08/01 18:34:00;;;;;;;7.87;6.03;;;;;;;18.82;100.00;99406.80;1743814;81;21725;-79
2022/08/01 18:37:06;;;;;;;7.97;6.28;;;;;;;18.84;100.00;99417.10;1750112;82;21161;-79
2022/08/01 18:40:13;;;;;;;8.85;6.30;;;;;;;18.88;100.00;99422.44;1750044;80;21200;-78
2022/08/01 18:43:20;;;;;;;7.92;6.50;;;;;;;18.93;100.00;99450.22;1749164;82;21236;-80
2022/08/01 18:46:27;;;;;;;11.35;6.47;;;;;;;18.89;100.00;99460.97;1748623;80;21771;-79
2022/08/01 18:49:33;;;;;;;12.85;6.25;;;;;;;18.95;100.00;99449.41;1749839;80;21203;-79
2022/08/01 18:52:41;;;;;;;8.50;6.62;;;;;;;18.95;100.00;99430.02;1749145;82;21161;-80
2022/08/01 18:55:45;;;;;;;10.50;6.60;;;;;;;18.92;100.00;99400.61;1749064;80;21752;-79
2022/08/01 18:58:51;;;;;;;9.78;6.95;;;;;;;18.91;100.00;99388.66;1750076;82;21165;-80
2022/08/01 19:01:57;;;;;;;9.58;7.08;;;;;;;18.85;100.00;99383.59;1749765;82;21741;-80
2022/08/01 19:05:01;;;;;;;8.85;7.47;;;;;;;18.81;100.00;99385.73;1749475;80;21256;-79
2022/08/01 19:08:08;;;;;;;15.35;8.53;;;;;;;18.80;100.00;99394.59;1749998;82;21168;-79
2022/08/01 19:11:14;;;;;;;13.90;8.55;;;;;;;18.82;100.00;99402.64;1748679;80;21184;-80
2022/08/01 19:14:13;;;;;;;13.93;9.25;;;;;;;18.82;100.00;99403.51;1749772;80;21236;-80
2022/08/01 19:17:07;;;;;;;12.80;9.45;;;;;;;18.86;100.00;99388.58;1748658;82;21188;-79
2022/08/01 19:19:55;;;;;;;10.32;7.30;;;;;;;18.88;100.00;99398.34;1749485;80;21204;-80
2022/08/01 19:22:50;;;;;;;10.28;7.28;;;;;;;18.86;100.00;99393.58;1749336;82;21251;-80
2022/08/01 19:25:56;;;;;;;10.30;6.58;;;;;;;18.86;100.00;99382.49;1749086;80;21196;-80
2022/08/01 19:29:06;;;;;;;9.53;7.35;;;;;;;18.88;100.00;99380.88;1749983;82;21473;-79
2022/08/01 19:32:13;;;;;;;11.10;7.50;;;;;;;18.88;100.00;99371.18;1750094;82;21161;-79
2022/08/01 19:35:32;;;;;;;10.43;7.50;;;;;;;18.89;100.00;99372.84;1730896;81;21248;-81
2022/08/01 19:38:37;;;;;;;14.28;8.20;;;;;;;18.89;100.00;99369.53;1714213;83;21178;-79
2022/08/01 19:41:37;;;;;;;10.15;8.13;;;;;;;18.87;100.00;99371.73;1709344;83;21182;-79
2022/08/01 19:44:43;;;;;;;10.00;8.33;;;;;;;18.84;100.00;99364.46;1707836;83;21264;-80
2022/08/01 19:47:48;;;;;;;10.75;8.10;;;;;;;18.84;100.00;99359.75;1698650;83;21714;-80
2022/08/01 19:50:55;;;;;;;11.93;8.18;;;;;;;18.85;100.00;99348.96;1707045;83;21229;-79
2022/08/01 19:54:01;;;;;;;11.48;8.63;;;;;;;18.83;100.00;99351.70;1706987;84;21174;-80
2022/08/01 19:57:10;;;;;;;9.43;7.58;;;;;;;18.86;100.00;99365.03;1707826;84;21197;-80
2022/08/01 20:00:16;;;;;;;14.87;8.28;;;;;;;18.87;100.00;99378.66;1707924;82;21233;-84
